SCBA/BBA METAR and TAF weather

Enter ICAO airport designator
Station Type Date Time Source
SCBA METAR 2020/11/25 21:00 UTC NOAA

SCBA 252100Z 29023KT 9999 SCT040 11/01 Q1006


Station Type Date Time Source
SCBA Decoded METAR 2020/11/25 21:00 UTC NOAA

Balmaceda, Chile (SCBA) 45-55S 071-41W 520M
Nov 25, 2020 - 04:00 PM EST / 2020.11.25 2100 UTC
Wind: from the WNW (290 degrees) at 26 MPH (23 KT):0
Visibility: greater than 7 mile(s):0
Sky conditions: partly cloudy
Temperature: 51 F (11 C)
Dew Point: 33 F (1 C)
Relative Humidity: 50%
Pressure (altimeter): 29.71 in. Hg (1006 hPa)
ob: SCBA 252100Z 29023KT 9999 SCT040 11/01 Q1006
cycle: 21

Station Type Date Time Source
SCBA TAF 2020/11/25 18:03 UTC NOAA

TAF SCBA 251619Z 2518/2618 30020KT 9999 BKN030 TX10/2518Z TN02/2611Z
TEMPO 2518/2522 30025G35KT SCT040
BECMG 2522/2524 30015KT
BECMG 2603/2605 BKN020

Example: see airport list